sensor_id;sensor_type;location;lat;lon;timestamp;pressure;altitude;pressure_sealevel;temperature;humidity
16613;BME280;8419;52.358;9.752;2022-08-21T00:00:40;100990.00;;;27.76;34.54
16613;BME280;8419;52.358;9.752;2022-08-21T00:03:25;100988.00;;;28.86;33.01
16613;BME280;8419;52.358;9.752;2022-08-21T00:06:11;100981.00;;;27.78;35.07
16613;BME280;8419;52.358;9.752;2022-08-21T00:08:57;100982.00;;;27.72;35.46
16613;BME280;8419;52.358;9.752;2022-08-21T00:11:42;100977.00;;;28.49;34.35
16613;BME280;8419;52.358;9.752;2022-08-21T00:14:28;100977.00;;;27.61;35.88
16613;BME280;8419;52.358;9.752;2022-08-21T00:17:13;100970.00;;;27.52;36.09
16613;BME280;8419;52.358;9.752;2022-08-21T00:19:59;100969.00;;;27.42;36.37
16613;BME280;8419;52.358;9.752;2022-08-21T00:22:45;100966.00;;;27.43;36.38
16613;BME280;8419;52.358;9.752;2022-08-21T00:25:31;100960.00;;;28.03;35.54
16613;BME280;8419;52.358;9.752;2022-08-21T00:28:17;100964.00;;;27.53;36.07
16613;BME280;8419;52.358;9.752;2022-08-21T00:31:02;100969.00;;;27.32;36.43
16613;BME280;8419;52.358;9.752;2022-08-21T00:33:48;100978.00;;;27.30;36.47
16613;BME280;8419;52.358;9.752;2022-08-21T00:36:35;100982.00;;;27.30;36.57
16613;BME280;8419;52.358;9.752;2022-08-21T00:39:20;100977.00;;;28.07;35.34
16613;BME280;8419;52.358;9.752;2022-08-21T00:42:06;100985.00;;;27.33;36.63
16613;BME280;8419;52.358;9.752;2022-08-21T00:44:52;100985.00;;;27.40;36.55
16613;BME280;8419;52.358;9.752;2022-08-21T00:47:38;100976.00;;;27.93;35.83
16613;BME280;8419;52.358;9.752;2022-08-21T00:50:26;100976.00;;;27.41;36.59
16613;BME280;8419;52.358;9.752;2022-08-21T00:53:14;100982.00;;;27.09;37.33
16613;BME280;8419;52.358;9.752;2022-08-21T00:56:00;100992.00;;;27.05;37.40
16613;BME280;8419;52.358;9.752;2022-08-21T00:58:48;100990.00;;;27.07;37.53
16613;BME280;8419;52.358;9.752;2022-08-21T01:01:34;100981.00;;;27.77;36.58
16613;BME280;8419;52.358;9.752;2022-08-21T01:04:19;100984.00;;;28.21;35.65
16613;BME280;8419;52.358;9.752;2022-08-21T01:07:05;100982.00;;;28.23;35.68
16613;BME280;8419;52.358;9.752;2022-08-21T01:09:51;100984.00;;;28.17;35.83
16613;BME280;8419;52.358;9.752;2022-08-21T01:12:36;100990.00;;;27.05;37.92
16613;BME280;8419;52.358;9.752;2022-08-21T01:15:24;100987.00;;;27.98;36.31
16613;BME280;8419;52.358;9.752;2022-08-21T01:18:13;100989.00;;;27.63;37.10
16613;BME280;8419;52.358;9.752;2022-08-21T01:21:03;100997.00;;;27.94;36.47
16613;BME280;8419;52.358;9.752;2022-08-21T01:23:52;100994.00;;;27.94;36.53
16613;BME280;8419;52.358;9.752;2022-08-21T01:26:39;100994.00;;;28.02;36.42
16613;BME280;8419;52.358;9.752;2022-08-21T01:29:30;100989.00;;;28.04;36.41
16613;BME280;8419;52.358;9.752;2022-08-21T01:32:18;100994.00;;;28.04;36.37
16613;BME280;8419;52.358;9.752;2022-08-21T01:35:05;100998.00;;;27.87;36.77
16613;BME280;8419;52.358;9.752;2022-08-21T01:37:51;100994.00;;;27.81;36.86
16613;BME280;8419;52.358;9.752;2022-08-21T01:40:36;100992.00;;;28.01;36.44
16613;BME280;8419;52.358;9.752;2022-08-21T01:43:22;100986.00;;;27.99;36.43
16613;BME280;8419;52.358;9.752;2022-08-21T01:46:07;100986.00;;;27.94;36.36
16613;BME280;8419;52.358;9.752;2022-08-21T01:48:53;100980.00;;;27.89;36.44
16613;BME280;8419;52.358;9.752;2022-08-21T01:51:38;100989.00;;;27.88;36.49
16613;BME280;8419;52.358;9.752;2022-08-21T01:54:23;101000.00;;;27.88;36.51
16613;BME280;8419;52.358;9.752;2022-08-21T01:57:09;100986.00;;;27.99;36.34
16613;BME280;8419;52.358;9.752;2022-08-21T01:59:55;100983.00;;;28.00;36.35
16613;BME280;8419;52.358;9.752;2022-08-21T02:02:41;100974.00;;;27.95;36.51
16613;BME280;8419;52.358;9.752;2022-08-21T02:05:26;100976.00;;;27.96;36.56
16613;BME280;8419;52.358;9.752;2022-08-21T02:08:12;100972.00;;;27.89;36.61
16613;BME280;8419;52.358;9.752;2022-08-21T02:10:57;100965.00;;;27.96;36.46
16613;BME280;8419;52.358;9.752;2022-08-21T02:13:43;100965.00;;;27.93;36.55
16613;BME280;8419;52.358;9.752;2022-08-21T02:16:29;100969.00;;;27.95;36.49
16613;BME280;8419;52.358;9.752;2022-08-21T02:19:15;100961.00;;;27.96;36.53
16613;BME280;8419;52.358;9.752;2022-08-21T02:22:01;100964.00;;;28.02;36.41
16613;BME280;8419;52.358;9.752;2022-08-21T02:24:46;100956.00;;;28.01;36.46
16613;BME280;8419;52.358;9.752;2022-08-21T02:27:38;100954.00;;;27.83;36.73
16613;BME280;8419;52.358;9.752;2022-08-21T02:30:28;100954.00;;;27.73;36.91
16613;BME280;8419;52.358;9.752;2022-08-21T02:33:15;100955.00;;;27.64;37.13
16613;BME280;8419;52.358;9.752;2022-08-21T02:36:02;100948.00;;;26.83;38.39
16613;BME280;8419;52.358;9.752;2022-08-21T02:38:48;100950.00;;;26.67;38.82
16613;BME280;8419;52.358;9.752;2022-08-21T02:41:34;100950.00;;;26.54;39.05
16613;BME280;8419;52.358;9.752;2022-08-21T02:44:19;100946.00;;;26.54;39.00
16613;BME280;8419;52.358;9.752;2022-08-21T02:47:05;100950.00;;;26.50;39.00
16613;BME280;8419;52.358;9.752;2022-08-21T02:49:50;100946.00;;;26.48;39.00
16613;BME280;8419;52.358;9.752;2022-08-21T02:52:36;100945.00;;;26.49;38.88
16613;BME280;8419;52.358;9.752;2022-08-21T02:55:24;100938.00;;;26.46;38.84
16613;BME280;8419;52.358;9.752;2022-08-21T02:58:11;100938.00;;;26.48;38.82
16613;BME280;8419;52.358;9.752;2022-08-21T03:00:57;100944.00;;;26.34;39.07
16613;BME280;8419;52.358;9.752;2022-08-21T03:03:45;100937.00;;;26.33;39.04
16613;BME280;8419;52.358;9.752;2022-08-21T03:06:31;100933.00;;;26.32;39.03
16613;BME280;8419;52.358;9.752;2022-08-21T03:09:16;100939.00;;;26.34;38.95
16613;BME280;8419;52.358;9.752;2022-08-21T03:12:02;100937.00;;;26.33;38.90
16613;BME280;8419;52.358;9.752;2022-08-21T03:14:48;100935.00;;;26.19;39.17
16613;BME280;8419;52.358;9.752;2022-08-21T03:17:34;100942.00;;;26.13;39.21
16613;BME280;8419;52.358;9.752;2022-08-21T03:20:22;100936.00;;;26.13;39.23
16613;BME280;8419;52.358;9.752;2022-08-21T03:23:09;100927.00;;;26.11;39.22
16613;BME280;8419;52.358;9.752;2022-08-21T03:25:55;100941.00;;;26.12;39.15
16613;BME280;8419;52.358;9.752;2022-08-21T03:28:40;100934.00;;;26.08;39.19
16613;BME280;8419;52.358;9.752;2022-08-21T03:31:26;100936.00;;;26.11;39.09
16613;BME280;8419;52.358;9.752;2022-08-21T03:34:14;100943.00;;;26.09;39.15
16613;BME280;8419;52.358;9.752;2022-08-21T03:36:59;100936.00;;;26.29;38.79
16613;BME280;8419;52.358;9.752;2022-08-21T03:39:45;100933.00;;;26.37;38.63
16613;BME280;8419;52.358;9.752;2022-08-21T03:42:30;100935.00;;;26.51;38.43
16613;BME280;8419;52.358;9.752;2022-08-21T03:45:17;100936.00;;;26.45;38.62
16613;BME280;8419;52.358;9.752;2022-08-21T03:48:05;100935.00;;;27.56;36.66
16613;BME280;8419;52.358;9.752;2022-08-21T03:50:52;100933.00;;;27.83;36.10
16613;BME280;8419;52.358;9.752;2022-08-21T03:53:38;100927.00;;;27.86;36.07
16613;BME280;8419;52.358;9.752;2022-08-21T03:56:23;100930.00;;;27.98;35.86
16613;BME280;8419;52.358;9.752;2022-08-21T03:59:09;100929.00;;;28.02;35.86
16613;BME280;8419;52.358;9.752;2022-08-21T04:01:56;100926.00;;;28.10;35.73
16613;BME280;8419;52.358;9.752;2022-08-21T04:04:43;100928.00;;;28.08;35.80
16613;BME280;8419;52.358;9.752;2022-08-21T04:07:28;100940.00;;;27.19;37.34
16613;BME280;8419;52.358;9.752;2022-08-21T04:10:14;100943.00;;;26.97;37.89
16613;BME280;8419;52.358;9.752;2022-08-21T04:12:59;100950.00;;;27.93;36.21
16613;BME280;8419;52.358;9.752;2022-08-21T04:15:44;100951.00;;;28.07;35.85
16613;BME280;8419;52.358;9.752;2022-08-21T04:18:30;100945.00;;;27.50;37.14
16613;BME280;8419;52.358;9.752;2022-08-21T04:21:15;100942.00;;;26.83;38.24
16613;BME280;8419;52.358;9.752;2022-08-21T04:24:00;100940.00;;;26.84;38.31
16613;BME280;8419;52.358;9.752;2022-08-21T04:26:46;100948.00;;;26.88;38.21
16613;BME280;8419;52.358;9.752;2022-08-21T04:29:32;100947.00;;;27.52;36.79
16613;BME280;8419;52.358;9.752;2022-08-21T04:32:22;100953.00;;;27.17;37.58
16613;BME280;8419;52.358;9.752;2022-08-21T04:35:11;100947.00;;;27.51;37.35
16613;BME280;8419;52.358;9.752;2022-08-21T04:37:57;100951.00;;;27.00;38.05
16613;BME280;8419;52.358;9.752;2022-08-21T04:40:42;100948.00;;;27.00;38.05
16613;BME280;8419;52.358;9.752;2022-08-21T04:43:28;100942.00;;;27.01;38.03
16613;BME280;8419;52.358;9.752;2022-08-21T04:46:13;100953.00;;;27.03;38.00
16613;BME280;8419;52.358;9.752;2022-08-21T04:49:00;100952.00;;;26.97;38.02
16613;BME280;8419;52.358;9.752;2022-08-21T04:51:45;100956.00;;;26.86;38.24
16613;BME280;8419;52.358;9.752;2022-08-21T04:54:31;100948.00;;;26.85;38.23
16613;BME280;8419;52.358;9.752;2022-08-21T04:57:17;100952.00;;;26.87;38.14
16613;BME280;8419;52.358;9.752;2022-08-21T05:00:06;100944.00;;;26.89;38.13
16613;BME280;8419;52.358;9.752;2022-08-21T05:02:53;100950.00;;;26.96;38.05
16613;BME280;8419;52.358;9.752;2022-08-21T05:05:43;100953.00;;;27.04;37.91
16613;BME280;8419;52.358;9.752;2022-08-21T05:08:29;100955.00;;;27.04;37.88
16613;BME280;8419;52.358;9.752;2022-08-21T05:11:15;100969.00;;;27.07;37.81
16613;BME280;8419;52.358;9.752;2022-08-21T05:14:00;100969.00;;;27.07;37.82
16613;BME280;8419;52.358;9.752;2022-08-21T05:16:46;100958.00;;;27.06;37.81
16613;BME280;8419;52.358;9.752;2022-08-21T05:19:32;100967.00;;;27.00;37.94
16613;BME280;8419;52.358;9.752;2022-08-21T05:22:21;100964.00;;;27.04;37.85
16613;BME280;8419;52.358;9.752;2022-08-21T05:25:09;100968.00;;;27.10;37.82
16613;BME280;8419;52.358;9.752;2022-08-21T05:27:56;100959.00;;;27.08;37.83
16613;BME280;8419;52.358;9.752;2022-08-21T05:30:41;100964.00;;;27.11;37.85
16613;BME280;8419;52.358;9.752;2022-08-21T05:33:27;100974.00;;;27.20;37.73
16613;BME280;8419;52.358;9.752;2022-08-21T05:36:12;100984.00;;;27.28;37.66
16613;BME280;8419;52.358;9.752;2022-08-21T05:38:58;100977.00;;;27.28;37.67
16613;BME280;8419;52.358;9.752;2022-08-21T05:41:43;100978.00;;;27.19;37.76
16613;BME280;8419;52.358;9.752;2022-08-21T05:44:29;100970.00;;;27.21;37.70
16613;BME280;8419;52.358;9.752;2022-08-21T05:47:14;100970.00;;;27.27;37.60
16613;BME280;8419;52.358;9.752;2022-08-21T05:50:00;100978.00;;;27.27;37.63
16613;BME280;8419;52.358;9.752;2022-08-21T05:52:47;100976.00;;;27.41;37.42
16613;BME280;8419;52.358;9.752;2022-08-21T05:55:33;100973.00;;;27.49;37.28
16613;BME280;8419;52.358;9.752;2022-08-21T05:58:20;100967.00;;;27.55;37.25
16613;BME280;8419;52.358;9.752;2022-08-21T06:01:07;100967.00;;;27.61;37.19
16613;BME280;8419;52.358;9.752;2022-08-21T06:03:53;100979.00;;;27.69;37.08
16613;BME280;8419;52.358;9.752;2022-08-21T06:06:41;100986.00;;;27.74;37.00
16613;BME280;8419;52.358;9.752;2022-08-21T06:09:27;100988.00;;;27.54;37.33
16613;BME280;8419;52.358;9.752;2022-08-21T06:12:13;100997.00;;;27.47;37.54
16613;BME280;8419;52.358;9.752;2022-08-21T06:14:58;100996.00;;;27.48;37.61
16613;BME280;8419;52.358;9.752;2022-08-21T06:17:46;100986.00;;;27.60;37.49
16613;BME280;8419;52.358;9.752;2022-08-21T06:20:31;100988.00;;;27.67;37.42
16613;BME280;8419;52.358;9.752;2022-08-21T06:23:19;100998.00;;;27.80;37.33
16613;BME280;8419;52.358;9.752;2022-08-21T06:26:06;100995.00;;;27.90;37.19
16613;BME280;8419;52.358;9.752;2022-08-21T06:28:52;100994.00;;;27.97;37.04
16613;BME280;8419;52.358;9.752;2022-08-21T06:31:39;100990.00;;;27.95;37.11
16613;BME280;8419;52.358;9.752;2022-08-21T06:34:25;101001.00;;;28.01;37.00
16613;BME280;8419;52.358;9.752;2022-08-21T06:37:11;100999.00;;;27.96;37.04
16613;BME280;8419;52.358;9.752;2022-08-21T06:39:56;101002.00;;;28.02;36.75
16613;BME280;8419;52.358;9.752;2022-08-21T06:42:42;101001.00;;;27.87;37.11
16613;BME280;8419;52.358;9.752;2022-08-21T06:45:28;100998.00;;;27.79;37.20
16613;BME280;8419;52.358;9.752;2022-08-21T06:48:13;101000.00;;;27.77;37.16
16613;BME280;8419;52.358;9.752;2022-08-21T06:50:59;100999.00;;;27.76;37.13
16613;BME280;8419;52.358;9.752;2022-08-21T06:53:46;100999.00;;;27.86;36.82
16613;BME280;8419;52.358;9.752;2022-08-21T06:56:31;100997.00;;;28.81;35.24
16613;BME280;8419;52.358;9.752;2022-08-21T06:59:18;100998.00;;;28.81;35.14
16613;BME280;8419;52.358;9.752;2022-08-21T07:02:04;100989.00;;;28.66;35.42
16613;BME280;8419;52.358;9.752;2022-08-21T07:04:49;100986.00;;;27.60;37.32
16613;BME280;8419;52.358;9.752;2022-08-21T07:07:35;100992.00;;;27.47;37.66
16613;BME280;8419;52.358;9.752;2022-08-21T07:10:20;100995.00;;;27.52;37.69
16613;BME280;8419;52.358;9.752;2022-08-21T07:13:06;100994.00;;;27.50;37.81
16613;BME280;8419;52.358;9.752;2022-08-21T07:15:51;100992.00;;;27.52;37.85
16613;BME280;8419;52.358;9.752;2022-08-21T07:18:37;100977.00;;;27.56;37.76
16613;BME280;8419;52.358;9.752;2022-08-21T07:21:23;100985.00;;;27.59;37.72
16613;BME280;8419;52.358;9.752;2022-08-21T07:24:09;100983.00;;;27.68;37.64
16613;BME280;8419;52.358;9.752;2022-08-21T07:26:56;100976.00;;;27.77;37.53
16613;BME280;8419;52.358;9.752;2022-08-21T07:29:44;100973.00;;;27.83;37.45
16613;BME280;8419;52.358;9.752;2022-08-21T07:32:29;100972.00;;;27.90;37.36
16613;BME280;8419;52.358;9.752;2022-08-21T07:35:15;100963.00;;;28.03;37.18
16613;BME280;8419;52.358;9.752;2022-08-21T07:38:00;100960.00;;;28.09;37.12
16613;BME280;8419;52.358;9.752;2022-08-21T07:40:47;100965.00;;;28.19;36.96
16613;BME280;8419;52.358;9.752;2022-08-21T07:43:33;100959.00;;;28.28;36.75
16613;BME280;8419;52.358;9.752;2022-08-21T07:46:18;100956.00;;;28.41;36.48
16613;BME280;8419;52.358;9.752;2022-08-21T07:49:04;100958.00;;;28.56;35.63
16613;BME280;8419;52.358;9.752;2022-08-21T07:51:49;100960.00;;;28.66;35.00
16613;BME280;8419;52.358;9.752;2022-08-21T07:54:35;100960.00;;;28.81;34.27
16613;BME280;8419;52.358;9.752;2022-08-21T07:57:20;100953.00;;;28.93;34.08
16613;BME280;8419;52.358;9.752;2022-08-21T08:00:11;100957.00;;;29.04;33.76
16613;BME280;8419;52.358;9.752;2022-08-21T08:02:57;100952.00;;;29.11;33.50
16613;BME280;8419;52.358;9.752;2022-08-21T08:05:43;100949.00;;;29.20;33.35
16613;BME280;8419;52.358;9.752;2022-08-21T08:08:28;100949.00;;;29.34;33.11
16613;BME280;8419;52.358;9.752;2022-08-21T08:11:14;100944.00;;;29.29;33.31
16613;BME280;8419;52.358;9.752;2022-08-21T08:14:00;100947.00;;;29.39;33.31
16613;BME280;8419;52.358;9.752;2022-08-21T08:16:48;100943.00;;;29.56;32.99
16613;BME280;8419;52.358;9.752;2022-08-21T08:19:34;100943.00;;;29.67;32.31
16613;BME280;8419;52.358;9.752;2022-08-21T08:22:21;100946.00;;;29.76;31.91
16613;BME280;8419;52.358;9.752;2022-08-21T08:25:10;100941.00;;;29.81;31.65
16613;BME280;8419;52.358;9.752;2022-08-21T08:27:56;100947.00;;;29.88;31.44
16613;BME280;8419;52.358;9.752;2022-08-21T08:30:41;100943.00;;;30.03;31.31
16613;BME280;8419;52.358;9.752;2022-08-21T08:33:27;100944.00;;;30.13;31.24
16613;BME280;8419;52.358;9.752;2022-08-21T08:36:14;100951.00;;;30.23;31.00
16613;BME280;8419;52.358;9.752;2022-08-21T08:39:00;100948.00;;;30.26;30.63
16613;BME280;8419;52.358;9.752;2022-08-21T08:41:48;100951.00;;;30.33;30.47
16613;BME280;8419;52.358;9.752;2022-08-21T08:44:36;100943.00;;;30.38;30.19
16613;BME280;8419;52.358;9.752;2022-08-21T08:47:22;100946.00;;;30.45;29.81
16613;BME280;8419;52.358;9.752;2022-08-21T08:50:13;100954.00;;;30.54;29.40
16613;BME280;8419;52.358;9.752;2022-08-21T08:53:05;100944.00;;;30.58;29.20
16613;BME280;8419;52.358;9.752;2022-08-21T08:55:52;100949.00;;;30.61;29.15
16613;BME280;8419;52.358;9.752;2022-08-21T08:58:40;100940.00;;;30.69;29.00
16613;BME280;8419;52.358;9.752;2022-08-21T09:01:27;100932.00;;;30.81;28.97
16613;BME280;8419;52.358;9.752;2022-08-21T09:04:13;100937.00;;;30.83;28.72
16613;BME280;8419;52.358;9.752;2022-08-21T09:07:12;100932.00;;;30.85;28.69
16613;BME280;8419;52.358;9.752;2022-08-21T09:10:11;100925.00;;;30.86;28.62
16613;BME280;8419;52.358;9.752;2022-08-21T09:13:04;100931.00;;;30.86;28.57
16613;BME280;8419;52.358;9.752;2022-08-21T09:15:56;100932.00;;;30.88;28.50
16613;BME280;8419;52.358;9.752;2022-08-21T09:18:54;100931.00;;;31.00;28.43
16613;BME280;8419;52.358;9.752;2022-08-21T09:21:51;100925.00;;;31.09;28.44
16613;BME280;8419;52.358;9.752;2022-08-21T09:24:45;100930.00;;;31.25;28.29
16613;BME280;8419;52.358;9.752;2022-08-21T09:27:34;100926.00;;;31.41;28.14
16613;BME280;8419;52.358;9.752;2022-08-21T09:30:27;100924.00;;;31.52;28.00
16613;BME280;8419;52.358;9.752;2022-08-21T09:33:14;100925.00;;;31.59;27.94
16613;BME280;8419;52.358;9.752;2022-08-21T09:36:01;100922.00;;;31.63;27.70
16613;BME280;8419;52.358;9.752;2022-08-21T09:38:52;100911.00;;;31.70;27.64
16613;BME280;8419;52.358;9.752;2022-08-21T09:41:40;100914.00;;;32.64;26.47
16613;BME280;8419;52.358;9.752;2022-08-21T09:44:28;100912.00;;;31.74;27.66
16613;BME280;8419;52.358;9.752;2022-08-21T09:47:13;100922.00;;;32.27;26.97
16613;BME280;8419;52.358;9.752;2022-08-21T09:50:14;100917.00;;;32.85;26.17
16613;BME280;8419;52.358;9.752;2022-08-21T09:53:01;100914.00;;;32.01;27.32
16613;BME280;8419;52.358;9.752;2022-08-21T09:55:52;100922.00;;;32.01;27.26
16613;BME280;8419;52.358;9.752;2022-08-21T09:58:56;100913.00;;;32.05;27.24
16613;BME280;8419;52.358;9.752;2022-08-21T10:01:44;100920.00;;;32.12;27.17
16613;BME280;8419;52.358;9.752;2022-08-21T10:04:32;100906.00;;;32.13;27.16
16613;BME280;8419;52.358;9.752;2022-08-21T10:07:21;100908.00;;;32.16;26.93
16613;BME280;8419;52.358;9.752;2022-08-21T10:10:14;100903.00;;;32.31;26.82
16613;BME280;8419;52.358;9.752;2022-08-21T10:13:07;100901.00;;;32.43;26.66
16613;BME280;8419;52.358;9.752;2022-08-21T10:22:57;100905.00;;;32.92;26.20
16613;BME280;8419;52.358;9.752;2022-08-21T10:25:52;100894.00;;;33.03;25.78
16613;BME280;8419;52.358;9.752;2022-08-21T10:28:53;100894.00;;;33.19;25.63
16613;BME280;8419;52.358;9.752;2022-08-21T10:31:53;100893.00;;;33.31;25.46
16613;BME280;8419;52.358;9.752;2022-08-21T10:34:47;100892.00;;;33.33;25.26
16613;BME280;8419;52.358;9.752;2022-08-21T10:37:47;100886.00;;;33.23;25.31
16613;BME280;8419;52.358;9.752;2022-08-21T10:40:40;100897.00;;;33.13;25.18
16613;BME280;8419;52.358;9.752;2022-08-21T10:43:35;100885.00;;;33.19;25.05
16613;BME280;8419;52.358;9.752;2022-08-21T10:46:50;100884.00;;;33.26;25.09
16613;BME280;8419;52.358;9.752;2022-08-21T10:49:40;100889.00;;;33.43;24.65
16613;BME280;8419;52.358;9.752;2022-08-21T10:52:41;100885.00;;;33.42;24.42
16613;BME280;8419;52.358;9.752;2022-08-21T10:55:35;100884.00;;;33.26;23.93
16613;BME280;8419;52.358;9.752;2022-08-21T10:58:27;100887.00;;;33.17;24.01
16613;BME280;8419;52.358;9.752;2022-08-21T11:01:18;100875.00;;;33.39;24.08
16613;BME280;8419;52.358;9.752;2022-08-21T11:04:13;100879.00;;;33.66;23.78
16613;BME280;8419;52.358;9.752;2022-08-21T11:07:05;100871.00;;;33.77;23.35
16613;BME280;8419;52.358;9.752;2022-08-21T11:09:55;100874.00;;;33.65;23.31
16613;BME280;8419;52.358;9.752;2022-08-21T11:12:46;100877.00;;;33.71;23.31
16613;BME280;8419;52.358;9.752;2022-08-21T11:15:38;100878.00;;;33.78;23.33
16613;BME280;8419;52.358;9.752;2022-08-21T11:18:29;100883.00;;;33.87;23.28
16613;BME280;8419;52.358;9.752;2022-08-21T11:21:27;100883.00;;;33.94;23.27
16613;BME280;8419;52.358;9.752;2022-08-21T11:24:24;100878.00;;;33.66;23.32
16613;BME280;8419;52.358;9.752;2022-08-21T11:27:20;100888.00;;;34.07;22.93
16613;BME280;8419;52.358;9.752;2022-08-21T11:30:09;100882.00;;;33.87;23.18
16613;BME280;8419;52.358;9.752;2022-08-21T11:33:04;100870.00;;;34.14;23.01
16613;BME280;8419;52.358;9.752;2022-08-21T11:36:00;100866.00;;;34.43;22.94
16613;BME280;8419;52.358;9.752;2022-08-21T11:38:55;100873.00;;;34.65;22.56
16613;BME280;8419;52.358;9.752;2022-08-21T11:41:48;100873.00;;;34.81;22.51
16613;BME280;8419;52.358;9.752;2022-08-21T11:44:48;100874.00;;;36.08;21.00
16613;BME280;8419;52.358;9.752;2022-08-21T11:47:44;100870.00;;;36.35;20.52
16613;BME280;8419;52.358;9.752;2022-08-21T11:50:36;100874.00;;;36.51;20.19
16613;BME280;8419;52.358;9.752;2022-08-21T11:53:28;100871.00;;;35.49;21.06
16613;BME280;8419;52.358;9.752;2022-08-21T11:56:19;100874.00;;;35.56;21.05
16613;BME280;8419;52.358;9.752;2022-08-21T11:59:10;100869.00;;;35.78;20.73
16613;BME280;8419;52.358;9.752;2022-08-21T12:01:57;100873.00;;;35.85;20.48
16613;BME280;8419;52.358;9.752;2022-08-21T12:04:46;100869.00;;;35.35;20.61
16613;BME280;8419;52.358;9.752;2022-08-21T12:07:36;100880.00;;;35.44;20.73
16613;BME280;8419;52.358;9.752;2022-08-21T12:10:33;100874.00;;;36.24;19.92
16613;BME280;8419;52.358;9.752;2022-08-21T12:13:28;100863.00;;;36.31;19.74
16613;BME280;8419;52.358;9.752;2022-08-21T12:16:24;100864.00;;;36.25;19.73
16613;BME280;8419;52.358;9.752;2022-08-21T12:19:30;100864.00;;;36.45;19.47
16613;BME280;8419;52.358;9.752;2022-08-21T12:22:15;100866.00;;;37.13;19.16
16613;BME280;8419;52.358;9.752;2022-08-21T12:25:07;100866.00;;;37.75;18.69
16613;BME280;8419;52.358;9.752;2022-08-21T12:28:10;100861.00;;;37.83;18.60
16613;BME280;8419;52.358;9.752;2022-08-21T12:30:58;100868.00;;;37.59;18.67
16613;BME280;8419;52.358;9.752;2022-08-21T12:33:54;100863.00;;;37.24;19.21
16613;BME280;8419;52.358;9.752;2022-08-21T12:36:45;100869.00;;;37.81;18.90
16613;BME280;8419;52.358;9.752;2022-08-21T12:39:39;100860.00;;;38.40;18.48
16613;BME280;8419;52.358;9.752;2022-08-21T12:42:41;100856.00;;;38.99;17.91
16613;BME280;8419;52.358;9.752;2022-08-21T12:45:30;100861.00;;;38.80;17.73
16613;BME280;8419;52.358;9.752;2022-08-21T12:48:20;100851.00;;;37.94;18.34
16613;BME280;8419;52.358;9.752;2022-08-21T12:51:24;100849.00;;;38.31;18.13
16613;BME280;8419;52.358;9.752;2022-08-21T12:54:27;100853.00;;;38.69;17.83
16613;BME280;8419;52.358;9.752;2022-08-21T12:57:24;100849.00;;;39.27;17.46
16613;BME280;8419;52.358;9.752;2022-08-21T13:00:20;100840.00;;;39.50;17.35
16613;BME280;8419;52.358;9.752;2022-08-21T13:03:07;100844.00;;;39.07;17.54
16613;BME280;8419;52.358;9.752;2022-08-21T13:05:57;100848.00;;;38.59;17.71
16613;BME280;8419;52.358;9.752;2022-08-21T13:08:51;100847.00;;;38.38;17.91
16613;BME280;8419;52.358;9.752;2022-08-21T13:11:47;100842.00;;;38.25;18.16
16613;BME280;8419;52.358;9.752;2022-08-21T13:14:37;100840.00;;;37.97;18.55
16613;BME280;8419;52.358;9.752;2022-08-21T13:17:24;100842.00;;;37.85;18.41
16613;BME280;8419;52.358;9.752;2022-08-21T13:20:20;100840.00;;;37.71;18.46
16613;BME280;8419;52.358;9.752;2022-08-21T13:23:20;100837.00;;;37.66;18.47
16613;BME280;8419;52.358;9.752;2022-08-21T13:26:16;100835.00;;;37.66;18.42
16613;BME280;8419;52.358;9.752;2022-08-21T13:29:07;100833.00;;;37.55;18.39
16613;BME280;8419;52.358;9.752;2022-08-21T13:32:02;100834.00;;;37.57;18.44
16613;BME280;8419;52.358;9.752;2022-08-21T13:34:49;100834.00;;;37.72;18.48
16613;BME280;8419;52.358;9.752;2022-08-21T13:37:39;100838.00;;;37.73;18.36
16613;BME280;8419;52.358;9.752;2022-08-21T13:40:38;100838.00;;;37.99;18.20
16613;BME280;8419;52.358;9.752;2022-08-21T13:43:30;100839.00;;;38.17;18.06
16613;BME280;8419;52.358;9.752;2022-08-21T13:46:17;100836.00;;;37.78;18.34
16613;BME280;8419;52.358;9.752;2022-08-21T13:49:08;100834.00;;;38.02;18.10
16613;BME280;8419;52.358;9.752;2022-08-21T13:51:58;100833.00;;;37.83;18.26
16613;BME280;8419;52.358;9.752;2022-08-21T13:54:53;100834.00;;;38.09;18.02
16613;BME280;8419;52.358;9.752;2022-08-21T13:57:43;100820.00;;;37.72;18.27
16613;BME280;8419;52.358;9.752;2022-08-21T14:00:42;100819.00;;;37.13;18.59
16613;BME280;8419;52.358;9.752;2022-08-21T14:03:34;100826.00;;;37.02;18.62
16613;BME280;8419;52.358;9.752;2022-08-21T14:06:24;100838.00;;;36.39;19.10
16613;BME280;8419;52.358;9.752;2022-08-21T14:09:12;100827.00;;;36.53;18.86
16613;BME280;8419;52.358;9.752;2022-08-21T14:12:01;100826.00;;;36.38;19.06
16613;BME280;8419;52.358;9.752;2022-08-21T14:14:47;100826.00;;;36.29;19.09
16613;BME280;8419;52.358;9.752;2022-08-21T14:17:34;100827.00;;;36.16;19.23
16613;BME280;8419;52.358;9.752;2022-08-21T14:20:31;100818.00;;;36.35;19.12
16613;BME280;8419;52.358;9.752;2022-08-21T14:23:24;100818.00;;;36.87;18.64
16613;BME280;8419;52.358;9.752;2022-08-21T14:26:10;100826.00;;;36.82;18.70
16613;BME280;8419;52.358;9.752;2022-08-21T14:28:59;100822.00;;;36.58;18.92
16613;BME280;8419;52.358;9.752;2022-08-21T14:31:50;100819.00;;;36.24;19.16
16613;BME280;8419;52.358;9.752;2022-08-21T14:34:36;100821.00;;;36.19;19.26
16613;BME280;8419;52.358;9.752;2022-08-21T14:37:21;100821.00;;;36.27;19.19
16613;BME280;8419;52.358;9.752;2022-08-21T14:40:10;100821.00;;;36.49;19.19
16613;BME280;8419;52.358;9.752;2022-08-21T14:42:57;100821.00;;;36.74;18.89
16613;BME280;8419;52.358;9.752;2022-08-21T14:45:42;100827.00;;;36.42;18.98
16613;BME280;8419;52.358;9.752;2022-08-21T14:48:28;100818.00;;;36.30;19.09
16613;BME280;8419;52.358;9.752;2022-08-21T14:51:14;100817.00;;;36.56;18.92
16613;BME280;8419;52.358;9.752;2022-08-21T14:53:59;100816.00;;;36.62;18.92
16613;BME280;8419;52.358;9.752;2022-08-21T14:56:45;100811.00;;;36.59;18.92
16613;BME280;8419;52.358;9.752;2022-08-21T14:59:31;100819.00;;;37.01;18.36